sensor_id;sensor_type;location;lat;lon;timestamp;pressure;altitude;pressure_sealevel;temperature
76009;BMP280;64700;52.130;21.270;2024-03-23T00:54:13;99786.22;;;20.46
76009;BMP280;64700;52.130;21.270;2024-03-23T00:56:38;99785.47;;;20.46
76009;BMP280;64700;52.130;21.270;2024-03-23T00:59:03;99778.53;;;20.45
76009;BMP280;64700;52.130;21.270;2024-03-23T01:01:29;99783.97;;;20.45
76009;BMP280;64700;52.130;21.270;2024-03-23T01:03:54;99766.94;;;20.44
76009;BMP280;64700;52.130;21.270;2024-03-23T01:06:19;99760.78;;;20.44
76009;BMP280;64700;52.130;21.270;2024-03-23T01:08:45;99760.03;;;20.43
76009;BMP280;64700;52.130;21.270;2024-03-23T01:11:10;99752.34;;;20.42
76009;BMP280;64700;52.130;21.270;2024-03-23T01:13:35;99743.75;;;20.43
76009;BMP280;64700;52.130;21.270;2024-03-23T01:16:00;99746.91;;;20.42
76009;BMP280;64700;52.130;21.270;2024-03-23T01:18:25;99744.47;;;20.44
76009;BMP280;64700;52.130;21.270;2024-03-23T01:20:51;99743.75;;;20.43
76009;BMP280;64700;52.130;21.270;2024-03-23T01:23:16;99743.75;;;20.43
76009;BMP280;64700;52.130;21.270;2024-03-23T01:25:42;99736.06;;;20.42
76009;BMP280;64700;52.130;21.270;2024-03-23T01:28:07;99735.31;;;20.41
76009;BMP280;64700;52.130;21.270;2024-03-23T01:30:32;99729.13;;;20.41
76009;BMP280;64700;52.130;21.270;2024-03-23T01:32:57;99731.09;;;20.40
76009;BMP280;64700;52.130;21.270;2024-03-23T01:35:22;99732.34;;;20.39
76009;BMP280;64700;52.130;21.270;2024-03-23T01:37:48;99716.81;;;20.40
76009;BMP280;64700;52.130;21.270;2024-03-23T01:40:13;99722.22;;;20.40
76009;BMP280;64700;52.130;21.270;2024-03-23T01:42:38;99721.50;;;20.39
76009;BMP280;64700;52.130;21.270;2024-03-23T01:45:04;99719.25;;;20.38
76009;BMP280;64700;52.130;21.270;2024-03-23T01:47:32;99721.50;;;20.39
76009;BMP280;64700;52.130;21.270;2024-03-23T01:49:57;99717.28;;;20.38
76009;BMP280;64700;52.130;21.270;2024-03-23T01:52:22;99723.94;;;20.37
76009;BMP280;64700;52.130;21.270;2024-03-23T01:54:47;99719.25;;;20.38
76009;BMP280;64700;52.130;21.270;2024-03-23T01:57:12;99725.41;;;20.38
76009;BMP280;64700;52.130;21.270;2024-03-23T01:59:38;99730.09;;;20.38
76009;BMP280;64700;52.130;21.270;2024-03-23T02:02:04;99733.56;;;20.38
76009;BMP280;64700;52.130;21.270;2024-03-23T02:04:29;99723.19;;;20.37
76009;BMP280;64700;52.130;21.270;2024-03-23T02:06:54;99710.84;;;20.36
76009;BMP280;64700;52.130;21.270;2024-03-23T02:09:19;99710.84;;;20.36
76009;BMP280;64700;52.130;21.270;2024-03-23T02:11:45;99707.63;;;20.37
76009;BMP280;64700;52.130;21.270;2024-03-23T02:14:10;99704.69;;;20.35
76009;BMP280;64700;52.130;21.270;2024-03-23T02:16:35;99704.19;;;20.37
76009;BMP280;64700;52.130;21.270;2024-03-23T02:19:00;99697.00;;;20.34
76009;BMP280;64700;52.130;21.270;2024-03-23T02:21:25;99690.34;;;20.35
76009;BMP280;64700;52.130;21.270;2024-03-23T02:23:52;99693.06;;;20.35
76009;BMP280;64700;52.130;21.270;2024-03-23T02:26:17;99684.91;;;20.35
76009;BMP280;64700;52.130;21.270;2024-03-23T02:28:42;99686.13;;;20.34
76009;BMP280;64700;52.130;21.270;2024-03-23T02:31:08;99687.34;;;20.33
76009;BMP280;64700;52.130;21.270;2024-03-23T02:33:33;99692.00;;;20.32
76009;BMP280;64700;52.130;21.270;2024-03-23T02:35:59;99691.56;;;20.34
76009;BMP280;64700;52.130;21.270;2024-03-23T02:38:25;99687.34;;;20.33
76009;BMP280;64700;52.130;21.270;2024-03-23T02:40:50;99684.63;;;20.33
76009;BMP280;64700;52.130;21.270;2024-03-23T02:43:15;99676.97;;;20.31
76009;BMP280;64700;52.130;21.270;2024-03-23T02:45:40;99682.41;;;20.31
76009;BMP280;64700;52.130;21.270;2024-03-23T02:48:05;99679.69;;;20.31
76009;BMP280;64700;52.130;21.270;2024-03-23T02:50:31;99667.28;;;20.25
76009;BMP280;64700;52.130;21.270;2024-03-23T02:52:56;99685.59;;;20.30
76009;BMP280;64700;52.130;21.270;2024-03-23T02:55:21;99676.97;;;20.31
76009;BMP280;64700;52.130;21.270;2024-03-23T02:57:46;99673.22;;;20.29
76009;BMP280;64700;52.130;21.270;2024-03-23T03:00:11;99666.09;;;20.31
76009;BMP280;64700;52.130;21.270;2024-03-23T03:02:37;99672.00;;;20.30
76009;BMP280;64700;52.130;21.270;2024-03-23T03:05:03;99665.84;;;20.29
76009;BMP280;64700;52.130;21.270;2024-03-23T03:07:30;99660.41;;;20.29
76009;BMP280;64700;52.130;21.270;2024-03-23T03:09:55;99659.66;;;20.29
76009;BMP280;64700;52.130;21.270;2024-03-23T03:12:20;99663.59;;;20.28
76009;BMP280;64700;52.130;21.270;2024-03-23T03:14:45;99655.44;;;20.28
76009;BMP280;64700;52.130;21.270;2024-03-23T03:17:10;99649.31;;;20.27
76009;BMP280;64700;52.130;21.270;2024-03-23T03:19:35;99643.88;;;20.27
76009;BMP280;64700;52.130;21.270;2024-03-23T03:22:01;99644.59;;;20.28
76009;BMP280;64700;52.130;21.270;2024-03-23T03:24:26;99644.59;;;20.28
76009;BMP280;64700;52.130;21.270;2024-03-23T03:26:51;99642.38;;;20.26
76009;BMP280;64700;52.130;21.270;2024-03-23T03:29:16;99643.13;;;20.27
76009;BMP280;64700;52.130;21.270;2024-03-23T03:31:43;99638.16;;;20.25
76009;BMP280;64700;52.130;21.270;2024-03-23T03:34:09;99637.69;;;20.27
76009;BMP280;64700;52.130;21.270;2024-03-23T03:36:34;99634.97;;;20.27
76009;BMP280;64700;52.130;21.270;2024-03-23T03:38:59;99636.19;;;20.26
76009;BMP280;64700;52.130;21.270;2024-03-23T03:41:24;99637.38;;;20.19
76009;BMP280;64700;52.130;21.270;2024-03-23T03:43:49;99651.00;;;20.25
76009;BMP280;64700;52.130;21.270;2024-03-23T03:46:14;99652.97;;;20.24
76009;BMP280;64700;52.130;21.270;2024-03-23T03:48:39;99648.03;;;20.23
76009;BMP280;64700;52.130;21.270;2024-03-23T03:51:05;99659.88;;;20.25
76009;BMP280;64700;52.130;21.270;2024-03-23T03:53:30;99657.16;;;20.25
76009;BMP280;64700;52.130;21.270;2024-03-23T03:55:56;99650.25;;;20.24
76009;BMP280;64700;52.130;21.270;2024-03-23T03:58:21;99648.03;;;20.23
76009;BMP280;64700;52.130;21.270;2024-03-23T04:00:46;99641.84;;;20.22
76009;BMP280;64700;52.130;21.270;2024-03-23T04:03:11;99643.81;;;20.22
76009;BMP280;64700;52.130;21.270;2024-03-23T04:05:36;99641.09;;;20.22
76009;BMP280;64700;52.130;21.270;2024-03-23T04:08:02;99636.16;;;20.20
76009;BMP280;64700;52.130;21.270;2024-03-23T04:10:28;99637.66;;;20.21
76009;BMP280;64700;52.130;21.270;2024-03-23T04:12:53;99639.63;;;20.21
76009;BMP280;64700;52.130;21.270;2024-03-23T04:15:18;99633.44;;;20.20
76009;BMP280;64700;52.130;21.270;2024-03-23T04:17:44;99633.44;;;20.20
76009;BMP280;64700;52.130;21.270;2024-03-23T04:20:09;99629.97;;;20.20
76009;BMP280;64700;52.130;21.270;2024-03-23T04:22:36;99641.56;;;20.20
76009;BMP280;64700;52.130;21.270;2024-03-23T04:25:01;99621.09;;;20.19
76009;BMP280;64700;52.130;21.270;2024-03-23T04:27:32;99628.50;;;20.19
76009;BMP280;64700;52.130;21.270;2024-03-23T04:29:57;99622.78;;;20.17
76009;BMP280;64700;52.130;21.270;2024-03-23T04:32:22;99625.00;;;20.18
76009;BMP280;64700;52.130;21.270;2024-03-23T04:34:47;99618.38;;;20.19
76009;BMP280;64700;52.130;21.270;2024-03-23T04:37:12;99611.44;;;20.18
76009;BMP280;64700;52.130;21.270;2024-03-23T04:39:38;99611.44;;;20.18
76009;BMP280;64700;52.130;21.270;2024-03-23T04:42:03;99609.94;;;20.17
76009;BMP280;64700;52.130;21.270;2024-03-23T04:44:29;99609.19;;;20.17
76009;BMP280;64700;52.130;21.270;2024-03-23T04:46:54;99608.72;;;20.18
76009;BMP280;64700;52.130;21.270;2024-03-23T04:49:19;99595.16;;;20.18
76009;BMP280;64700;52.130;21.270;2024-03-23T04:51:44;99595.16;;;20.18
76009;BMP280;64700;52.130;21.270;2024-03-23T04:54:11;99602.84;;;20.20
76009;BMP280;64700;52.130;21.270;2024-03-23T04:56:36;99592.72;;;20.20
76009;BMP280;64700;52.130;21.270;2024-03-23T04:59:01;99594.22;;;20.21
76009;BMP280;64700;52.130;21.270;2024-03-23T05:01:29;99591.50;;;20.21
76009;BMP280;64700;52.130;21.270;2024-03-23T05:03:55;99591.03;;;20.23
76009;BMP280;64700;52.130;21.270;2024-03-23T05:06:21;99587.56;;;20.22
76009;BMP280;64700;52.130;21.270;2024-03-23T05:08:46;99590.81;;;20.26
76009;BMP280;64700;52.130;21.270;2024-03-23T05:11:11;99593.50;;;20.26
76009;BMP280;64700;52.130;21.270;2024-03-23T05:13:36;99594.25;;;20.27
76009;BMP280;64700;52.130;21.270;2024-03-23T05:16:01;99578.72;;;20.27
76009;BMP280;64700;52.130;21.270;2024-03-23T05:18:26;99578.22;;;20.29
76009;BMP280;64700;52.130;21.270;2024-03-23T05:20:56;99573.53;;;20.29
76009;BMP280;64700;52.130;21.270;2024-03-23T05:23:22;99561.47;;;20.30
76009;BMP280;64700;52.130;21.270;2024-03-23T05:25:47;99576.53;;;20.31
76009;BMP280;64700;52.130;21.270;2024-03-23T05:28:12;99589.91;;;20.35
76009;BMP280;64700;52.130;21.270;2024-03-23T05:30:38;99587.94;;;20.35
76009;BMP280;64700;52.130;21.270;2024-03-23T05:33:03;99587.44;;;20.37
76009;BMP280;64700;52.130;21.270;2024-03-23T05:35:28;99582.75;;;20.37
76009;BMP280;64700;52.130;21.270;2024-03-23T05:37:53;99570.19;;;20.40
76009;BMP280;64700;52.130;21.270;2024-03-23T05:40:18;99568.47;;;20.42
76009;BMP280;64700;52.130;21.270;2024-03-23T05:42:43;99567.25;;;20.43
76009;BMP280;64700;52.130;21.270;2024-03-23T05:45:08;99560.56;;;20.44
76009;BMP280;64700;52.130;21.270;2024-03-23T05:47:33;99567.25;;;20.43
76009;BMP280;64700;52.130;21.270;2024-03-23T05:49:59;99573.41;;;20.44
76009;BMP280;64700;52.130;21.270;2024-03-23T05:52:24;99563.06;;;20.48
76009;BMP280;64700;52.130;21.270;2024-03-23T05:54:50;99560.16;;;20.52
76009;BMP280;64700;52.130;21.270;2024-03-23T05:57:15;99571.25;;;20.54
76009;BMP280;64700;52.130;21.270;2024-03-23T05:59:40;99564.59;;;20.55
76009;BMP280;64700;52.130;21.270;2024-03-23T06:02:05;99572.53;;;20.58
76009;BMP280;64700;52.130;21.270;2024-03-23T06:04:30;99564.13;;;20.56
76009;BMP280;64700;52.130;21.270;2024-03-23T06:06:56;99580.19;;;20.60
76009;BMP280;64700;52.130;21.270;2024-03-23T06:09:22;99574.56;;;20.63
76009;BMP280;64700;52.130;21.270;2024-03-23T06:11:48;99567.59;;;20.62
76009;BMP280;64700;52.130;21.270;2024-03-23T06:14:13;99559.75;;;20.64
76009;BMP280;64700;52.130;21.270;2024-03-23T06:16:38;99548.13;;;20.64
76009;BMP280;64700;52.130;21.270;2024-03-23T06:19:03;99535.53;;;20.66
76009;BMP280;64700;52.130;21.270;2024-03-23T06:21:31;99540.72;;;20.64
76009;BMP280;64700;52.130;21.270;2024-03-23T06:23:56;99544.19;;;20.65
76009;BMP280;64700;52.130;21.270;2024-03-23T06:26:21;99548.66;;;20.68
76009;BMP280;64700;52.130;21.270;2024-03-23T06:28:47;99560.25;;;20.68
76009;BMP280;64700;52.130;21.270;2024-03-23T06:31:12;99552.84;;;20.69
76009;BMP280;64700;52.130;21.270;2024-03-23T06:33:37;99556.31;;;20.69
76009;BMP280;64700;52.130;21.270;2024-03-23T06:36:03;99562.47;;;20.70
76009;BMP280;64700;52.130;21.270;2024-03-23T06:38:29;99564.66;;;20.66
76009;BMP280;64700;52.130;21.270;2024-03-23T06:40:54;99549.41;;;20.68
76009;BMP280;64700;52.130;21.270;2024-03-23T06:43:19;99543.22;;;20.68
76009;BMP280;64700;52.130;21.270;2024-03-23T06:45:44;99545.66;;;20.66
76009;BMP280;64700;52.130;21.270;2024-03-23T06:48:17;99541.25;;;20.68
76009;BMP280;64700;52.130;21.270;2024-03-23T06:50:42;99541.25;;;20.68
76009;BMP280;64700;52.130;21.270;2024-03-23T06:53:07;99537.78;;;20.68
76009;BMP280;64700;52.130;21.270;2024-03-23T06:55:32;99533.84;;;20.69
76009;BMP280;64700;52.130;21.270;2024-03-23T06:57:58;99530.38;;;20.68
76009;BMP280;64700;52.130;21.270;2024-03-23T07:00:23;99528.66;;;20.71
76009;BMP280;64700;52.130;21.270;2024-03-23T07:02:48;99528.16;;;20.72
76009;BMP280;64700;52.130;21.270;2024-03-23T07:05:13;99526.72;;;20.77
76009;BMP280;64700;52.130;21.270;2024-03-23T07:07:38;99520.34;;;20.85
76009;BMP280;64700;52.130;21.270;2024-03-23T07:10:04;99512.66;;;20.84
76009;BMP280;64700;52.130;21.270;2024-03-23T07:12:29;99509.94;;;20.78
76009;BMP280;64700;52.130;21.270;2024-03-23T07:14:54;99511.16;;;20.77
76009;BMP280;64700;52.130;21.270;2024-03-23T07:17:19;99522.00;;;20.72
76009;BMP280;64700;52.130;21.270;2024-03-23T07:19:44;99517.78;;;20.71
76009;BMP280;64700;52.130;21.270;2024-03-23T07:22:09;99515.81;;;20.71
76009;BMP280;64700;52.130;21.270;2024-03-23T07:24:35;99513.09;;;20.71
76009;BMP280;64700;52.130;21.270;2024-03-23T07:27:00;99513.38;;;20.73
76009;BMP280;64700;52.130;21.270;2024-03-23T07:29:27;99512.34;;;20.71
76009;BMP280;64700;52.130;21.270;2024-03-23T07:31:52;99518.28;;;20.69
76009;BMP280;64700;52.130;21.270;2024-03-23T07:34:17;99511.13;;;20.72
76009;BMP280;64700;52.130;21.270;2024-03-23T07:36:42;99502.97;;;20.72
76009;BMP280;64700;52.130;21.270;2024-03-23T07:39:07;99508.66;;;20.68
76009;BMP280;64700;52.130;21.270;2024-03-23T07:41:33;99507.91;;;20.68
76009;BMP280;64700;52.130;21.270;2024-03-23T07:44:01;99505.94;;;20.68
76009;BMP280;64700;52.130;21.270;2024-03-23T07:46:26;99502.72;;;20.70
76009;BMP280;64700;52.130;21.270;2024-03-23T07:48:51;99507.66;;;20.71
76009;BMP280;64700;52.130;21.270;2024-03-23T07:51:17;99501.47;;;20.71
76009;BMP280;64700;52.130;21.270;2024-03-23T07:53:44;99494.31;;;20.68
76009;BMP280;64700;52.130;21.270;2024-03-23T07:56:09;99491.84;;;20.70
76009;BMP280;64700;52.130;21.270;2024-03-23T07:58:35;99486.41;;;20.70
76009;BMP280;64700;52.130;21.270;2024-03-23T08:01:04;99480.00;;;20.67
76009;BMP280;64700;52.130;21.270;2024-03-23T08:03:30;99481.47;;;20.68
76009;BMP280;64700;52.130;21.270;2024-03-23T08:05:55;99485.91;;;20.66
76009;BMP280;64700;52.130;21.270;2024-03-23T08:08:20;99474.56;;;20.67
76009;BMP280;64700;52.130;21.270;2024-03-23T08:10:52;99479.75;;;20.65
76009;BMP280;64700;52.130;21.270;2024-03-23T08:13:18;99467.91;;;20.68
76009;BMP280;64700;52.130;21.270;2024-03-23T08:15:43;99465.44;;;20.70
76009;BMP280;64700;52.130;21.270;2024-03-23T08:18:09;99451.13;;;20.75
76009;BMP280;64700;52.130;21.270;2024-03-23T08:20:34;99454.31;;;20.74
76009;BMP280;64700;52.130;21.270;2024-03-23T08:22:59;99443.44;;;20.74
76009;BMP280;64700;52.130;21.270;2024-03-23T08:25:24;99435.88;;;20.78
76009;BMP280;64700;52.130;21.270;2024-03-23T08:27:49;99436.59;;;20.78
76009;BMP280;64700;52.130;21.270;2024-03-23T08:30:15;99436.13;;;20.85
76009;BMP280;64700;52.130;21.270;2024-03-23T08:32:40;99442.53;;;20.88
76009;BMP280;64700;52.130;21.270;2024-03-23T08:35:05;99433.91;;;20.89
76009;BMP280;64700;52.130;21.270;2024-03-23T08:37:30;99441.78;;;20.87
76009;BMP280;64700;52.130;21.270;2024-03-23T08:39:55;99436.34;;;20.87
76009;BMP280;64700;52.130;21.270;2024-03-23T08:42:21;99410.41;;;20.86
76009;BMP280;64700;52.130;21.270;2024-03-23T08:44:46;99414.38;;;20.91
76009;BMP280;64700;52.130;21.270;2024-03-23T08:47:15;99409.97;;;20.94
76009;BMP280;64700;52.130;21.270;2024-03-23T08:49:40;99407.47;;;20.90
76009;BMP280;64700;52.130;21.270;2024-03-23T08:52:05;99403.28;;;20.89
76009;BMP280;64700;52.130;21.270;2024-03-23T08:54:30;99401.06;;;20.93
76009;BMP280;64700;52.130;21.270;2024-03-23T08:56:56;99397.31;;;20.90
76009;BMP280;64700;52.130;21.270;2024-03-23T08:59:21;99392.41;;;20.89
76009;BMP280;64700;52.130;21.270;2024-03-23T09:01:48;99392.16;;;20.92
76009;BMP280;64700;52.130;21.270;2024-03-23T09:04:13;99375.16;;;20.98
76009;BMP280;64700;52.130;21.270;2024-03-23T09:06:38;99374.41;;;20.97
76009;BMP280;64700;52.130;21.270;2024-03-23T09:09:04;99377.84;;;20.98
76009;BMP280;64700;52.130;21.270;2024-03-23T09:11:29;99377.34;;;20.99
76009;BMP280;64700;52.130;21.270;2024-03-23T09:13:54;99371.44;;;21.01
76009;BMP280;64700;52.130;21.270;2024-03-23T09:16:19;99369.69;;;21.03
76009;BMP280;64700;52.130;21.270;2024-03-23T09:18:45;99357.34;;;21.02
76009;BMP280;64700;52.130;21.270;2024-03-23T09:21:11;99353.66;;;21.05
76009;BMP280;64700;52.130;21.270;2024-03-23T09:23:40;99340.06;;;21.05
76009;BMP280;64700;52.130;21.270;2024-03-23T09:26:05;99348.69;;;21.04
76009;BMP280;64700;52.130;21.270;2024-03-23T09:28:32;99349.19;;;21.02
76009;BMP280;64700;52.130;21.270;2024-03-23T09:31:04;99348.47;;;21.02
76009;BMP280;64700;52.130;21.270;2024-03-23T09:33:33;99335.63;;;21.02
76009;BMP280;64700;52.130;21.270;2024-03-23T09:36:02;99329.69;;;21.09
76009;BMP280;64700;52.130;21.270;2024-03-23T09:38:27;99321.06;;;21.11
76009;BMP280;64700;52.130;21.270;2024-03-23T09:40:53;99320.81;;;21.09
76009;BMP280;64700;52.130;21.270;2024-03-23T09:43:18;99328.97;;;21.09
76009;BMP280;64700;52.130;21.270;2024-03-23T09:45:44;99315.38;;;21.09
76009;BMP280;64700;52.130;21.270;2024-03-23T09:48:10;99313.41;;;21.15
76009;BMP280;64700;52.130;21.270;2024-03-23T09:50:36;99303.75;;;21.14
76009;BMP280;64700;52.130;21.270;2024-03-23T09:53:02;99301.78;;;21.14
76009;BMP280;64700;52.130;21.270;2024-03-23T09:55:27;99303.97;;;21.16
76009;BMP280;64700;52.130;21.270;2024-03-23T09:57:52;99298.81;;;21.18
76009;BMP280;64700;52.130;21.270;2024-03-23T10:00:17;99301.03;;;21.14
76009;BMP280;64700;52.130;21.270;2024-03-23T10:02:42;99298.06;;;21.12
76009;BMP280;64700;52.130;21.270;2024-03-23T10:05:19;99292.41;;;21.10
76009;BMP280;64700;52.130;21.270;2024-03-23T10:07:44;99289.69;;;21.10
76009;BMP280;64700;52.130;21.270;2024-03-23T10:10:12;99276.56;;;21.08
76009;BMP280;64700;52.130;21.270;2024-03-23T10:12:39;99279.56;;;21.10
76009;BMP280;64700;52.130;21.270;2024-03-23T10:15:13;99282.28;;;21.10
76009;BMP280;64700;52.130;21.270;2024-03-23T10:17:40;99267.91;;;21.15
76009;BMP280;64700;52.130;21.270;2024-03-23T10:20:05;99259.50;;;21.19
76009;BMP280;64700;52.130;21.270;2024-03-23T10:22:36;99252.34;;;21.16
76009;BMP280;64700;52.130;21.270;2024-03-23T10:25:09;99237.03;;;21.13
76009;BMP280;64700;52.130;21.270;2024-03-23T10:27:34;99207.63;;;21.17
76009;BMP280;64700;52.130;21.270;2024-03-23T10:30:13;99203.63;;;21.35
76009;BMP280;64700;52.130;21.270;2024-03-23T10:32:39;99197.22;;;21.38
76009;BMP280;64700;52.130;21.270;2024-03-23T10:35:14;99186.81;;;21.42
76009;BMP280;64700;52.130;21.270;2024-03-23T10:37:40;99180.13;;;21.43
76009;BMP280;64700;52.130;21.270;2024-03-23T10:40:06;99174.47;;;21.35
76009;BMP280;64700;52.130;21.270;2024-03-23T10:42:31;99166.31;;;21.35
76009;BMP280;64700;52.130;21.270;2024-03-23T10:44:57;99160.63;;;21.33
76009;BMP280;64700;52.130;21.270;2024-03-23T10:47:23;99147.78;;;21.28
76009;BMP280;64700;52.130;21.270;2024-03-23T10:49:48;99147.56;;;21.26
76009;BMP280;64700;52.130;21.270;2024-03-23T10:52:13;99140.63;;;21.25
76009;BMP280;64700;52.130;21.270;2024-03-23T10:54:38;99133.72;;;21.24
76009;BMP280;64700;52.130;21.270;2024-03-23T10:57:09;99134.69;;;21.21
76009;BMP280;64700;52.130;21.270;2024-03-23T10:59:36;99128.81;;;21.22
76009;BMP280;64700;52.130;21.270;2024-03-23T11:02:02;99140.13;;;21.21
76009;BMP280;64700;52.130;21.270;2024-03-23T11:04:31;99121.13;;;21.21
76009;BMP280;64700;52.130;21.270;2024-03-23T11:06:57;99121.84;;;21.21
76009;BMP280;64700;52.130;21.270;2024-03-23T11:09:38;99117.16;;;21.22
76009;BMP280;64700;52.130;21.270;2024-03-23T11:14:48;99092.94;;;21.24
76009;BMP280;64700;52.130;21.270;2024-03-23T11:17:22;99089.75;;;21.25
76009;BMP280;64700;52.130;21.270;2024-03-23T11:19:54;99086.75;;;21.29
76009;BMP280;64700;52.130;21.270;2024-03-23T11:25:02;99097.63;;;21.29
76009;BMP280;64700;52.130;21.270;2024-03-23T11:27:27;99089.47;;;21.29
76009;BMP280;64700;52.130;21.270;2024-03-23T11:29:52;99073.66;;;21.27
76009;BMP280;64700;52.130;21.270;2024-03-23T11:32:17;99080.56;;;21.28
76009;BMP280;64700;52.130;21.270;2024-03-23T11:34:42;99071.44;;;21.26
76009;BMP280;64700;52.130;21.270;2024-03-23T11:37:08;99075.88;;;21.29
76009;BMP280;64700;52.130;21.270;2024-03-23T11:39:33;99062.28;;;21.29
76009;BMP280;64700;52.130;21.270;2024-03-23T11:41:58;99059.56;;;21.29
76009;BMP280;64700;52.130;21.270;2024-03-23T11:44:25;99057.34;;;21.27
76009;BMP280;64700;52.130;21.270;2024-03-23T11:46:50;99048.00;;;21.23
76009;BMP280;64700;52.130;21.270;2024-03-23T11:49:23;99040.31;;;21.27
76009;BMP280;64700;52.130;21.270;2024-03-23T11:51:49;99045.97;;;21.29
76009;BMP280;64700;52.130;21.270;2024-03-23T11:54:14;99039.53;;;21.32
76009;BMP280;64700;52.130;21.270;2024-03-23T11:56:39;99035.06;;;21.35
76009;BMP280;64700;52.130;21.270;2024-03-23T11:59:04;99020.94;;;21.36
76009;BMP280;64700;52.130;21.270;2024-03-23T12:01:31;99020.50;;;21.32
76009;BMP280;64700;52.130;21.270;2024-03-23T12:03:56;99015.03;;;21.32
76009;BMP280;64700;52.130;21.270;2024-03-23T12:06:21;99001.47;;;21.32
76009;BMP280;64700;52.130;21.270;2024-03-23T12:08:46;99011.09;;;21.33
76009;BMP280;64700;52.130;21.270;2024-03-23T12:11:16;99000.97;;;21.33
76009;BMP280;64700;52.130;21.270;2024-03-23T12:13:42;99001.72;;;21.28
76009;BMP280;64700;52.130;21.270;2024-03-23T12:16:15;98995.81;;;21.30
76009;BMP280;64700;52.130;21.270;2024-03-23T12:18:41;98975.06;;;21.27
76009;BMP280;64700;52.130;21.270;2024-03-23T12:21:07;98996.75;;;21.38
76009;BMP280;64700;52.130;21.270;2024-03-23T12:23:32;98990.78;;;21.40
76009;BMP280;64700;52.130;21.270;2024-03-23T12:25:57;98991.53;;;21.40
76009;BMP280;64700;52.130;21.270;2024-03-23T12:28:24;98985.34;;;21.40
76009;BMP280;64700;52.130;21.270;2024-03-23T12:30:49;98975.47;;;21.42
76009;BMP280;64700;52.130;21.270;2024-03-23T12:33:14;98976.72;;;21.41
76009;BMP280;64700;52.130;21.270;2024-03-23T12:35:39;98979.41;;;21.41
76009;BMP280;64700;52.130;21.270;2024-03-23T12:38:04;98967.59;;;21.39
76009;BMP280;64700;52.130;21.270;2024-03-23T12:40:29;98957.47;;;21.39
76009;BMP280;64700;52.130;21.270;2024-03-23T12:42:55;98952.50;;;21.38
76009;BMP280;64700;52.130;21.270;2024-03-23T12:45:21;98944.81;;;21.36
76009;BMP280;64700;52.130;21.270;2024-03-23T12:47:46;98932.75;;;21.31
76009;BMP280;64700;52.130;21.270;2024-03-23T12:50:11;98935.47;;;21.31
76009;BMP280;64700;52.130;21.270;2024-03-23T12:52:36;98921.66;;;21.29
76009;BMP280;64700;52.130;21.270;2024-03-23T12:55:02;98923.19;;;21.25
76009;BMP280;64700;52.130;21.270;2024-03-23T12:57:28;98916.03;;;21.22
76009;BMP280;64700;52.130;21.270;2024-03-23T12:59:53;98906.16;;;21.19
76009;BMP280;64700;52.130;21.270;2024-03-23T13:02:19;98908.38;;;21.20
76009;BMP280;64700;52.130;21.270;2024-03-23T13:04:45;98903.19;;;21.22
76009;BMP280;64700;52.130;21.270;2024-03-23T13:07:10;98898.97;;;21.27
76009;BMP280;64700;52.130;21.270;2024-03-23T13:09:35;98891.06;;;21.23
76009;BMP280;64700;52.130;21.270;2024-03-23T13:12:00;98887.34;;;21.26
76009;BMP280;64700;52.130;21.270;2024-03-23T13:14:26;98868.81;;;21.25
76009;BMP280;64700;52.130;21.270;2024-03-23T13:16:51;98874.22;;;21.30
76009;BMP280;64700;52.130;21.270;2024-03-23T13:19:16;98879.06;;;21.43
76009;BMP280;64700;52.130;21.270;2024-03-23T13:21:42;98877.50;;;21.48
76009;BMP280;64700;52.130;21.270;2024-03-23T13:24:07;98868.41;;;21.45
76009;BMP280;64700;52.130;21.270;2024-03-23T13:26:32;98864.00;;;21.37
76009;BMP280;64700;52.130;21.270;2024-03-23T13:28:59;98867.00;;;21.33
76009;BMP280;64700;52.130;21.270;2024-03-23T13:31:24;98854.16;;;21.33
76009;BMP280;64700;52.130;21.270;2024-03-23T13:33:49;98840.56;;;21.39
76009;BMP280;64700;52.130;21.270;2024-03-23T13:36:14;98838.94;;;21.55
76009;BMP280;64700;52.130;21.270;2024-03-23T13:38:39;98826.06;;;21.55
76009;BMP280;64700;52.130;21.270;2024-03-23T13:41:05;98821.88;;;21.49
76009;BMP280;64700;52.130;21.270;2024-03-23T13:43:31;98816.78;;;21.40
76009;BMP280;64700;52.130;21.270;2024-03-23T13:45:57;98817.53;;;21.40
76009;BMP280;64700;52.130;21.270;2024-03-23T13:48:23;98804.69;;;21.41
76009;BMP280;64700;52.130;21.270;2024-03-23T13:51:01;98799.97;;;21.41
76009;BMP280;64700;52.130;21.270;2024-03-23T13:53:26;98803.44;;;21.42
76009;BMP280;64700;52.130;21.270;2024-03-23T13:55:51;98795.03;;;21.40
76009;BMP280;64700;52.130;21.270;2024-03-23T13:58:17;98793.81;;;21.41
76009;BMP280;64700;52.130;21.270;2024-03-23T14:00:42;98794.53;;;21.41
76009;BMP280;64700;52.130;21.270;2024-03-23T14:03:10;98781.44;;;21.40
76009;BMP280;64700;52.130;21.270;2024-03-23T14:05:36;98784.16;;;21.40
76009;BMP280;64700;52.130;21.270;2024-03-23T14:08:03;98782.72;;;21.39
76009;BMP280;64700;52.130;21.270;2024-03-23T14:10:28;98776.00;;;21.40
76009;BMP280;64700;52.130;21.270;2024-03-23T14:12:53;98772.59;;;21.39
76009;BMP280;64700;52.130;21.270;2024-03-23T14:15:18;98767.16;;;21.39
76009;BMP280;64700;52.130;21.270;2024-03-23T14:17:43;98771.09;;;21.38
76009;BMP280;64700;52.130;21.270;2024-03-23T14:20:09;98762.41;;;21.40
76009;BMP280;64700;52.130;21.270;2024-03-23T14:22:36;98756.28;;;21.39
76009;BMP280;64700;52.130;21.270;2024-03-23T14:25:01;98754.06;;;21.38
76009;BMP280;64700;52.130;21.270;2024-03-23T14:27:26;98755.53;;;21.39
76009;BMP280;64700;52.130;21.270;2024-03-23T14:29:51;98751.06;;;21.36
76009;BMP280;64700;52.130;21.270;2024-03-23T14:32:16;98744.19;;;21.35
76009;BMP280;64700;52.130;21.270;2024-03-23T14:34:41;98734.53;;;21.33
76009;BMP280;64700;52.130;21.270;2024-03-23T14:37:07;98724.91;;;21.32
76009;BMP280;64700;52.130;21.270;2024-03-23T14:39:32;98720.50;;;21.29
76009;BMP280;64700;52.130;21.270;2024-03-23T14:41:59;98708.97;;;21.23
76009;BMP280;64700;52.130;21.270;2024-03-23T14:44:24;98709.97;;;21.20
76009;BMP280;64700;52.130;21.270;2024-03-23T14:46:49;98708.47;;;21.19